sensor_id;sensor_type;location;lat;lon;timestamp;pressure;altitude;pressure_sealevel;temperature;humidity
44138;BME280;29800;55.942;37.314;2022-10-19T00:02:10;98824.81;;;9.07;77.92
44138;BME280;29800;55.942;37.314;2022-10-19T00:04:36;98820.19;;;9.08;78.16
44138;BME280;29800;55.942;37.314;2022-10-19T00:07:02;98811.19;;;9.07;78.21
44138;BME280;29800;55.942;37.314;2022-10-19T00:09:28;98801.34;;;9.06;78.03
44138;BME280;29800;55.942;37.314;2022-10-19T00:11:54;98802.44;;;9.05;77.73
44138;BME280;29800;55.942;37.314;2022-10-19T00:14:22;98796.13;;;9.05;78.21
44138;BME280;29800;55.942;37.314;2022-10-19T00:16:49;98789.06;;;9.04;77.87
44138;BME280;29800;55.942;37.314;2022-10-19T00:19:23;98793.66;;;9.03;78.21
44138;BME280;29800;55.942;37.314;2022-10-19T00:21:50;98792.84;;;9.02;78.35
44138;BME280;29800;55.942;37.314;2022-10-19T00:24:16;98788.47;;;9.01;78.10
44138;BME280;29800;55.942;37.314;2022-10-19T00:26:42;98785.75;;;9.01;77.88
44138;BME280;29800;55.942;37.314;2022-10-19T00:29:11;98787.41;;;9.02;78.35
44138;BME280;29800;55.942;37.314;2022-10-19T00:31:37;98780.03;;;9.03;78.12
44138;BME280;29800;55.942;37.314;2022-10-19T00:34:03;98772.69;;;9.04;78.39
44138;BME280;29800;55.942;37.314;2022-10-19T00:36:32;98789.88;;;9.04;78.26
44138;BME280;29800;55.942;37.314;2022-10-19T00:38:59;98790.69;;;9.05;78.28
44138;BME280;29800;55.942;37.314;2022-10-19T00:41:29;98775.97;;;9.06;78.56
44138;BME280;29800;55.942;37.314;2022-10-19T00:46:23;98771.84;;;9.08;78.38
44138;BME280;29800;55.942;37.314;2022-10-19T00:48:52;98773.78;;;9.08;78.12
44138;BME280;29800;55.942;37.314;2022-10-19T00:51:19;98780.59;;;9.05;78.16
44138;BME280;29800;55.942;37.314;2022-10-19T00:53:45;98783.03;;;9.07;78.42
44138;BME280;29800;55.942;37.314;2022-10-19T00:56:13;98777.59;;;9.07;78.50
44138;BME280;29800;55.942;37.314;2022-10-19T00:58:41;98775.44;;;9.09;78.41
44138;BME280;29800;55.942;37.314;2022-10-19T01:01:10;98766.13;;;9.10;78.31
44138;BME280;29800;55.942;37.314;2022-10-19T01:03:39;98764.00;;;9.12;77.78
44138;BME280;29800;55.942;37.314;2022-10-19T01:06:05;98759.59;;;9.11;77.84
44138;BME280;29800;55.942;37.314;2022-10-19T01:08:31;98753.34;;;9.10;78.14
44138;BME280;29800;55.942;37.314;2022-10-19T01:11:08;98748.13;;;9.09;78.10
44138;BME280;29800;55.942;37.314;2022-10-19T01:22:33;98754.91;;;9.01;78.41
44138;BME280;29800;55.942;37.314;2022-10-19T01:25:23;98752.19;;;9.01;77.81
44138;BME280;29800;55.942;37.314;2022-10-19T01:30:44;98755.16;;;8.99;78.57
44138;BME280;29800;55.942;37.314;2022-10-19T01:33:29;98755.44;;;8.98;78.63
44138;BME280;29800;55.942;37.314;2022-10-19T01:38:55;98755.16;;;8.99;78.90
44138;BME280;29800;55.942;37.314;2022-10-19T01:41:36;98755.16;;;8.99;78.33
44138;BME280;29800;55.942;37.314;2022-10-19T01:44:57;98743.44;;;8.99;78.97
44138;BME280;29800;55.942;37.314;2022-10-19T01:47:06;98739.88;;;8.98;79.08
44138;BME280;29800;55.942;37.314;2022-10-19T01:49:51;98732.53;;;8.99;78.70
44138;BME280;29800;55.942;37.314;2022-10-19T01:52:20;98728.13;;;8.98;78.34
44138;BME280;29800;55.942;37.314;2022-10-19T01:54:49;98730.88;;;8.98;79.01
44138;BME280;29800;55.942;37.314;2022-10-19T01:57:22;98724.59;;;8.97;78.29
44138;BME280;29800;55.942;37.314;2022-10-19T01:59:52;98723.50;;;8.98;78.67
44138;BME280;29800;55.942;37.314;2022-10-19T02:02:19;98710.41;;;8.95;78.94
44138;BME280;29800;55.942;37.314;2022-10-19T02:04:47;98712.28;;;8.95;78.96
44138;BME280;29800;55.942;37.314;2022-10-19T02:07:15;98708.75;;;8.94;78.44
44138;BME280;29800;55.942;37.314;2022-10-19T02:09:41;98701.63;;;8.93;78.66
44138;BME280;29800;55.942;37.314;2022-10-19T02:12:08;98695.38;;;8.93;78.50
44138;BME280;29800;55.942;37.314;2022-10-19T02:14:39;98689.91;;;8.93;78.42
44138;BME280;29800;55.942;37.314;2022-10-19T02:17:16;98697.28;;;8.92;78.65
44138;BME280;29800;55.942;37.314;2022-10-19T02:19:44;98697.53;;;8.91;78.58
44138;BME280;29800;55.942;37.314;2022-10-19T02:22:11;98695.06;;;8.89;78.44
44138;BME280;29800;55.942;37.314;2022-10-19T02:24:37;98694.25;;;8.89;78.40
44138;BME280;29800;55.942;37.314;2022-10-19T02:27:04;98691.78;;;8.87;79.00
44138;BME280;29800;55.942;37.314;2022-10-19T02:29:32;98693.41;;;8.88;78.71
44138;BME280;29800;55.942;37.314;2022-10-19T02:31:59;98693.41;;;8.88;79.24
44138;BME280;29800;55.942;37.314;2022-10-19T02:34:25;98689.06;;;8.87;78.97
44138;BME280;29800;55.942;37.314;2022-10-19T02:36:52;98690.13;;;8.86;79.28
44138;BME280;29800;55.942;37.314;2022-10-19T02:39:18;98679.50;;;8.85;78.96
44138;BME280;29800;55.942;37.314;2022-10-19T02:42:04;98681.97;;;8.86;78.96
44138;BME280;29800;55.942;37.314;2022-10-19T02:44:49;98680.03;;;8.87;79.05
44138;BME280;29800;55.942;37.314;2022-10-19T02:47:18;98670.25;;;8.91;78.63
44138;BME280;29800;55.942;37.314;2022-10-19T02:49:46;98668.88;;;8.88;78.06
44138;BME280;29800;55.942;37.314;2022-10-19T02:52:13;98669.13;;;8.87;78.51
44138;BME280;29800;55.942;37.314;2022-10-19T02:54:42;98662.03;;;8.86;78.47
44138;BME280;29800;55.942;37.314;2022-10-19T02:57:17;98652.19;;;8.85;78.73
44138;BME280;29800;55.942;37.314;2022-10-19T02:59:44;98658.72;;;8.83;78.78
44138;BME280;29800;55.942;37.314;2022-10-19T03:02:10;98651.66;;;8.82;78.60
44138;BME280;29800;55.942;37.314;2022-10-19T03:04:36;98652.19;;;8.79;78.43
44138;BME280;29800;55.942;37.314;2022-10-19T03:07:02;98635.81;;;8.79;78.44
44138;BME280;29800;55.942;37.314;2022-10-19T03:09:28;98631.16;;;8.80;78.06
44138;BME280;29800;55.942;37.314;2022-10-19T03:11:55;98636.63;;;8.80;77.72
44138;BME280;29800;55.942;37.314;2022-10-19T03:14:21;98635.00;;;8.79;77.62
44138;BME280;29800;55.942;37.314;2022-10-19T03:16:47;98639.06;;;8.76;77.52
44138;BME280;29800;55.942;37.314;2022-10-19T03:19:13;98635.53;;;8.76;77.40
44138;BME280;29800;55.942;37.314;2022-10-19T03:21:39;98637.16;;;8.77;77.45
44138;BME280;29800;55.942;37.314;2022-10-19T03:24:05;98638.81;;;8.78;77.26
44138;BME280;29800;55.942;37.314;2022-10-19T03:26:31;98638.53;;;8.79;76.81
44138;BME280;29800;55.942;37.314;2022-10-19T03:28:57;98631.16;;;8.80;76.75
44138;BME280;29800;55.942;37.314;2022-10-19T03:31:23;98635.00;;;8.79;77.21
44138;BME280;29800;55.942;37.314;2022-10-19T03:33:49;98632.53;;;8.77;76.80
44138;BME280;29800;55.942;37.314;2022-10-19T03:36:21;98629.81;;;8.77;76.92
44138;BME280;29800;55.942;37.314;2022-10-19T03:38:55;98631.69;;;8.77;76.79
44138;BME280;29800;55.942;37.314;2022-10-19T03:41:24;98619.97;;;8.76;76.69
44138;BME280;29800;55.942;37.314;2022-10-19T03:43:51;98619.16;;;8.76;76.30
44138;BME280;29800;55.942;37.314;2022-10-19T03:46:17;98615.84;;;8.74;76.24
44138;BME280;29800;55.942;37.314;2022-10-19T03:48:43;98610.66;;;8.72;76.71
44138;BME280;29800;55.942;37.314;2022-10-19T03:51:12;98604.13;;;8.73;76.51
44138;BME280;29800;55.942;37.314;2022-10-19T03:53:38;98607.66;;;8.74;76.43
44138;BME280;29800;55.942;37.314;2022-10-19T03:56:14;98613.13;;;8.74;76.48
44138;BME280;29800;55.942;37.314;2022-10-19T03:58:42;98613.69;;;8.76;76.22
44138;BME280;29800;55.942;37.314;2022-10-19T04:01:14;98612.59;;;8.77;75.65
44138;BME280;29800;55.942;37.314;2022-10-19T04:03:40;98605.25;;;8.77;75.75
44138;BME280;29800;55.942;37.314;2022-10-19T04:06:16;98598.13;;;8.76;75.95
44138;BME280;29800;55.942;37.314;2022-10-19T04:08:47;98595.41;;;8.76;76.06
44138;BME280;29800;55.942;37.314;2022-10-19T04:11:19;98588.03;;;8.77;75.67
44138;BME280;29800;55.942;37.314;2022-10-19T04:13:49;98578.22;;;8.76;75.99
44138;BME280;29800;55.942;37.314;2022-10-19T04:16:17;98575.25;;;8.77;75.51
44138;BME280;29800;55.942;37.314;2022-10-19T04:18:43;98581.50;;;8.78;75.35
44138;BME280;29800;55.942;37.314;2022-10-19T04:21:22;98576.31;;;8.76;75.38
44138;BME280;29800;55.942;37.314;2022-10-19T04:23:49;98582.31;;;8.73;75.82
44138;BME280;29800;55.942;37.314;2022-10-19T04:26:16;98573.56;;;8.71;75.72
44138;BME280;29800;55.942;37.314;2022-10-19T04:28:42;98571.91;;;8.70;75.72
44138;BME280;29800;55.942;37.314;2022-10-19T04:31:09;98580.38;;;8.69;75.59
44138;BME280;29800;55.942;37.314;2022-10-19T04:33:35;98575.75;;;8.69;75.92
44138;BME280;29800;55.942;37.314;2022-10-19T04:36:04;98577.38;;;8.70;75.38
44138;BME280;29800;55.942;37.314;2022-10-19T04:38:32;98581.47;;;8.68;75.93
44138;BME280;29800;55.942;37.314;2022-10-19T04:41:05;98573.28;;;8.68;75.72
44138;BME280;29800;55.942;37.314;2022-10-19T04:43:31;98568.91;;;8.67;75.62
44138;BME280;29800;55.942;37.314;2022-10-19T04:46:11;98561.81;;;8.65;76.11
44138;BME280;29800;55.942;37.314;2022-10-19T04:48:39;98563.72;;;8.65;76.26
44138;BME280;29800;55.942;37.314;2022-10-19T04:51:06;98565.63;;;8.64;76.19
44138;BME280;29800;55.942;37.314;2022-10-19T04:53:33;98563.72;;;8.65;76.02
44138;BME280;29800;55.942;37.314;2022-10-19T04:56:03;98571.09;;;8.70;76.04
44138;BME280;29800;55.942;37.314;2022-10-19T04:58:29;98562.13;;;8.69;75.77
44138;BME280;29800;55.942;37.314;2022-10-19T05:00:55;98564.00;;;8.69;76.08
44138;BME280;29800;55.942;37.314;2022-10-19T05:03:21;98558.69;;;9.10;76.69
44138;BME280;29800;55.942;37.314;2022-10-19T05:05:48;98564.25;;;9.92;77.13
44138;BME280;29800;55.942;37.314;2022-10-19T05:08:14;98555.53;;;10.86;74.92
44138;BME280;29800;55.942;37.314;2022-10-19T05:10:40;98561.56;;;11.77;72.18
44138;BME280;29800;55.942;37.314;2022-10-19T05:13:06;98548.44;;;12.57;69.48
44138;BME280;29800;55.942;37.314;2022-10-19T05:15:32;98547.09;;;13.22;67.16
44138;BME280;29800;55.942;37.314;2022-10-19T05:17:58;98542.28;;;13.85;65.01
44138;BME280;29800;55.942;37.314;2022-10-19T05:20:25;98540.47;;;14.27;63.62
44138;BME280;29800;55.942;37.314;2022-10-19T05:22:51;98538.75;;;14.59;61.92
44138;BME280;29800;55.942;37.314;2022-10-19T05:25:17;98528.13;;;14.94;60.31
44138;BME280;29800;55.942;37.314;2022-10-19T05:27:43;98526.22;;;15.31;59.29
44138;BME280;29800;55.942;37.314;2022-10-19T05:30:10;98523.88;;;15.60;57.96
44138;BME280;29800;55.942;37.314;2022-10-19T05:32:38;98529.91;;;15.85;57.47
44138;BME280;29800;55.942;37.314;2022-10-19T05:35:04;98535.75;;;16.06;56.55
44138;BME280;29800;55.942;37.314;2022-10-19T05:37:30;98534.59;;;16.30;55.84
44138;BME280;29800;55.942;37.314;2022-10-19T05:39:56;98529.28;;;16.51;54.86
44138;BME280;29800;55.942;37.314;2022-10-19T05:42:22;98533.56;;;16.66;53.85
44138;BME280;29800;55.942;37.314;2022-10-19T05:44:48;98525.34;;;16.83;53.26
44138;BME280;29800;55.942;37.314;2022-10-19T05:47:17;98518.09;;;16.96;52.31
44138;BME280;29800;55.942;37.314;2022-10-19T05:49:43;98509.34;;;17.12;52.44
44138;BME280;29800;55.942;37.314;2022-10-19T05:52:09;98511.47;;;17.23;52.09
44138;BME280;29800;55.942;37.314;2022-10-19T05:54:36;98511.16;;;17.34;51.44
44138;BME280;29800;55.942;37.314;2022-10-19T05:57:02;98504.47;;;17.43;51.15
44138;BME280;29800;55.942;37.314;2022-10-19T05:59:28;98511.50;;;17.50;50.74
44138;BME280;29800;55.942;37.314;2022-10-19T06:01:54;98506.91;;;17.62;50.29
44138;BME280;29800;55.942;37.314;2022-10-19T06:04:20;98514.06;;;17.72;49.84
44138;BME280;29800;55.942;37.314;2022-10-19T06:06:46;98514.06;;;17.81;49.97
44138;BME280;29800;55.942;37.314;2022-10-19T06:09:12;98512.09;;;17.90;49.63
44138;BME280;29800;55.942;37.314;2022-10-19T06:11:40;98507.69;;;17.98;49.03
44138;BME280;29800;55.942;37.314;2022-10-19T06:14:11;98500.19;;;18.07;48.86
44138;BME280;29800;55.942;37.314;2022-10-19T06:16:37;98505.88;;;18.11;48.76
44138;BME280;29800;55.942;37.314;2022-10-19T06:19:04;98506.69;;;18.11;48.45
44138;BME280;29800;55.942;37.314;2022-10-19T06:21:31;98503.72;;;18.16;48.36
44138;BME280;29800;55.942;37.314;2022-10-19T06:23:59;98510.41;;;18.24;47.86
44138;BME280;29800;55.942;37.314;2022-10-19T06:26:28;98498.38;;;18.20;46.96
44138;BME280;29800;55.942;37.314;2022-10-19T06:28:55;98498.53;;;18.24;47.83
44138;BME280;29800;55.942;37.314;2022-10-19T06:31:26;98500.13;;;18.25;47.66
44138;BME280;29800;55.942;37.314;2022-10-19T06:33:52;98493.50;;;18.17;46.33
44138;BME280;29800;55.942;37.314;2022-10-19T06:36:21;98495.19;;;17.13;45.96
44138;BME280;29800;55.942;37.314;2022-10-19T06:38:48;98502.72;;;15.92;47.39
44138;BME280;29800;55.942;37.314;2022-10-19T06:41:14;98503.19;;;14.76;50.06
44138;BME280;29800;55.942;37.314;2022-10-19T06:43:41;98513.16;;;13.84;52.43
44138;BME280;29800;55.942;37.314;2022-10-19T06:46:11;98506.63;;;13.09;55.11
44138;BME280;29800;55.942;37.314;2022-10-19T06:48:37;98509.84;;;12.48;56.44
44138;BME280;29800;55.942;37.314;2022-10-19T06:51:05;98508.78;;;11.96;58.21
44138;BME280;29800;55.942;37.314;2022-10-19T06:53:36;98512.97;;;11.49;59.74
44138;BME280;29800;55.942;37.314;2022-10-19T06:56:04;98515.44;;;11.11;61.45
44138;BME280;29800;55.942;37.314;2022-10-19T06:58:34;98518.91;;;10.77;62.20
44138;BME280;29800;55.942;37.314;2022-10-19T07:01:00;98517.94;;;10.47;63.40
44138;BME280;29800;55.942;37.314;2022-10-19T07:03:27;98520.44;;;10.23;64.13
44138;BME280;29800;55.942;37.314;2022-10-19T07:05:55;98523.75;;;10.04;65.25
44138;BME280;29800;55.942;37.314;2022-10-19T07:08:22;98514.50;;;9.85;66.26
44138;BME280;29800;55.942;37.314;2022-10-19T07:10:50;98513.69;;;9.74;67.20
44138;BME280;29800;55.942;37.314;2022-10-19T07:13:16;98517.53;;;9.63;67.54
44138;BME280;29800;55.942;37.314;2022-10-19T07:15:42;98515.31;;;9.49;68.40
44138;BME280;29800;55.942;37.314;2022-10-19T07:18:08;98508.22;;;9.38;68.99
44138;BME280;29800;55.942;37.314;2022-10-19T07:20:34;98513.94;;;9.26;69.40
44138;BME280;29800;55.942;37.314;2022-10-19T07:23:00;98517.22;;;9.23;70.20
44138;BME280;29800;55.942;37.314;2022-10-19T07:25:27;98519.38;;;9.16;70.57
44138;BME280;29800;55.942;37.314;2022-10-19T07:27:55;98510.94;;;9.12;71.69
44138;BME280;29800;55.942;37.314;2022-10-19T07:30:22;98519.91;;;9.08;71.55
44138;BME280;29800;55.942;37.314;2022-10-19T07:32:48;98519.38;;;9.06;71.84
44138;BME280;29800;55.942;37.314;2022-10-19T07:35:14;98523.72;;;9.01;72.27
44138;BME280;29800;55.942;37.314;2022-10-19T07:37:40;98510.59;;;8.98;71.98
44138;BME280;29800;55.942;37.314;2022-10-19T07:40:07;98503.81;;;8.96;72.76
44138;BME280;29800;55.942;37.314;2022-10-19T07:42:33;98506.78;;;8.94;72.52
44138;BME280;29800;55.942;37.314;2022-10-19T07:45:02;98504.06;;;8.89;73.48
44138;BME280;29800;55.942;37.314;2022-10-19T07:47:29;98504.59;;;8.86;73.14
44138;BME280;29800;55.942;37.314;2022-10-19T07:49:55;98501.88;;;8.86;73.95
44138;BME280;29800;55.942;37.314;2022-10-19T07:52:21;98499.66;;;8.83;73.97
44138;BME280;29800;55.942;37.314;2022-10-19T07:54:47;98508.94;;;8.82;74.65
44138;BME280;29800;55.942;37.314;2022-10-19T07:57:14;98508.13;;;8.81;74.56
44138;BME280;29800;55.942;37.314;2022-10-19T07:59:40;98505.13;;;8.83;74.40
44138;BME280;29800;55.942;37.314;2022-10-19T08:02:13;98499.13;;;8.86;74.69
44138;BME280;29800;55.942;37.314;2022-10-19T08:04:41;98499.13;;;8.86;75.15
44138;BME280;29800;55.942;37.314;2022-10-19T08:07:07;98511.97;;;8.86;74.84
44138;BME280;29800;55.942;37.314;2022-10-19T08:09:33;98500.78;;;8.87;75.24
44138;BME280;29800;55.942;37.314;2022-10-19T08:11:59;98510.31;;;8.85;75.56
44138;BME280;29800;55.942;37.314;2022-10-19T08:14:25;98512.78;;;8.86;75.27
44138;BME280;29800;55.942;37.314;2022-10-19T08:16:51;98507.59;;;8.85;75.76
44138;BME280;29800;55.942;37.314;2022-10-19T08:19:17;98510.06;;;8.86;76.04
44138;BME280;29800;55.942;37.314;2022-10-19T08:21:45;98503.78;;;8.86;76.24
44138;BME280;29800;55.942;37.314;2022-10-19T08:24:13;98506.78;;;8.84;76.04
44138;BME280;29800;55.942;37.314;2022-10-19T08:26:39;98506.19;;;8.82;76.57
44138;BME280;29800;55.942;37.314;2022-10-19T08:29:10;98504.59;;;8.81;76.23
44138;BME280;29800;55.942;37.314;2022-10-19T08:31:37;98509.50;;;8.79;76.71
44138;BME280;29800;55.942;37.314;2022-10-19T08:34:04;98508.38;;;8.80;75.79
44138;BME280;29800;55.942;37.314;2022-10-19T08:36:30;98501.56;;;8.77;76.06
44138;BME280;29800;55.942;37.314;2022-10-19T08:38:57;98507.84;;;8.78;76.86
44138;BME280;29800;55.942;37.314;2022-10-19T08:49:26;98506.19;;;8.77;76.51
44138;BME280;29800;55.942;37.314;2022-10-19T08:52:17;98511.13;;;8.80;76.45
44138;BME280;29800;55.942;37.314;2022-10-19T08:57:35;98514.63;;;8.75;77.04
44138;BME280;29800;55.942;37.314;2022-10-19T09:06:03;98517.97;;;8.82;76.32
44138;BME280;29800;55.942;37.314;2022-10-19T09:08:32;98514.38;;;8.77;76.47
44138;BME280;29800;55.942;37.314;2022-10-19T09:11:01;98515.75;;;8.74;76.69
44138;BME280;29800;55.942;37.314;2022-10-19T09:13:37;98519.81;;;8.72;77.49
44138;BME280;29800;55.942;37.314;2022-10-19T09:16:05;98518.72;;;8.68;77.72
44138;BME280;29800;55.942;37.314;2022-10-19T09:18:33;98519.53;;;8.68;78.11
44138;BME280;29800;55.942;37.314;2022-10-19T09:23:58;98519.53;;;8.68;77.59
44138;BME280;29800;55.942;37.314;2022-10-19T09:26:30;98516.81;;;8.68;77.25
44138;BME280;29800;55.942;37.314;2022-10-19T09:29:51;98518.72;;;8.68;77.82
44138;BME280;29800;55.942;37.314;2022-10-19T09:31:54;98520.34;;;8.69;77.88
44138;BME280;29800;55.942;37.314;2022-10-19T09:34:37;98525.00;;;8.68;77.84
44138;BME280;29800;55.942;37.314;2022-10-19T09:37:05;98524.19;;;8.68;77.52
44138;BME280;29800;55.942;37.314;2022-10-19T09:39:31;98518.72;;;8.68;77.77
44138;BME280;29800;55.942;37.314;2022-10-19T09:44:43;98528.00;;;8.67;77.61
44138;BME280;29800;55.942;37.314;2022-10-19T09:50:20;98515.16;;;8.67;77.80
44138;BME280;29800;55.942;37.314;2022-10-19T09:52:51;98517.09;;;8.67;77.48
44138;BME280;29800;55.942;37.314;2022-10-19T09:55:32;98515.75;;;8.74;78.35
44138;BME280;29800;55.942;37.314;2022-10-19T10:00:46;98520.09;;;8.75;77.20
44138;BME280;29800;55.942;37.314;2022-10-19T10:03:22;98519.28;;;8.75;77.15
44138;BME280;29800;55.942;37.314;2022-10-19T10:05:49;98512.19;;;8.74;77.75
44138;BME280;29800;55.942;37.314;2022-10-19T10:08:19;98518.75;;;8.78;77.94
44138;BME280;29800;55.942;37.314;2022-10-19T10:11:11;98509.50;;;8.79;77.00
44138;BME280;29800;55.942;37.314;2022-10-19T10:13:40;98511.94;;;8.80;77.40
44138;BME280;29800;55.942;37.314;2022-10-19T10:16:10;98508.13;;;8.81;77.06
44138;BME280;29800;55.942;37.314;2022-10-19T10:19:00;98512.78;;;8.86;77.10
44138;BME280;29800;55.942;37.314;2022-10-19T10:21:31;98512.22;;;8.84;76.61
44138;BME280;29800;55.942;37.314;2022-10-19T10:24:16;98499.13;;;8.86;75.89
44138;BME280;29800;55.942;37.314;2022-10-19T10:26:47;98492.59;;;8.87;76.13
44138;BME280;29800;55.942;37.314;2022-10-19T10:29:18;98496.41;;;8.91;75.67
44138;BME280;29800;55.942;37.314;2022-10-19T10:31:47;98487.69;;;8.94;75.45
44138;BME280;29800;55.942;37.314;2022-10-19T10:34:18;98491.50;;;8.98;75.02
44138;BME280;29800;55.942;37.314;2022-10-19T10:36:52;98489.63;;;9.04;75.35
44138;BME280;29800;55.942;37.314;2022-10-19T10:39:19;98483.34;;;9.09;75.19
44138;BME280;29800;55.942;37.314;2022-10-19T10:41:54;98471.91;;;9.17;74.91
44138;BME280;29800;55.942;37.314;2022-10-19T10:44:26;98480.91;;;9.23;75.05
44138;BME280;29800;55.942;37.314;2022-10-19T10:47:03;98482.28;;;9.25;73.99
44138;BME280;29800;55.942;37.314;2022-10-19T10:49:51;98482.81;;;9.27;73.46
44138;BME280;29800;55.942;37.314;2022-10-19T10:52:18;98483.94;;;9.31;72.90
44138;BME280;29800;55.942;37.314;2022-10-19T10:57:45;98489.38;;;9.36;72.23
44138;BME280;29800;55.942;37.314;2022-10-19T11:00:22;98483.38;;;9.40;71.34
44138;BME280;29800;55.942;37.314;2022-10-19T11:03:07;98472.72;;;9.43;71.63
44138;BME280;29800;55.942;37.314;2022-10-19T11:05:49;98474.63;;;9.43;70.83
44138;BME280;29800;55.942;37.314;2022-10-19T11:16:59;98481.72;;;9.54;71.57
44138;BME280;29800;55.942;37.314;2022-10-19T11:19:40;98486.09;;;9.55;71.96
44138;BME280;29800;55.942;37.314;2022-10-19T11:25:29;98492.09;;;9.57;70.83
44138;BME280;29800;55.942;37.314;2022-10-19T11:28:17;98488.84;;;9.55;70.48
44138;BME280;29800;55.942;37.314;2022-10-19T11:30:58;98487.47;;;9.52;70.67
44138;BME280;29800;55.942;37.314;2022-10-19T11:47:35;98486.09;;;9.50;69.69
44138;BME280;29800;55.942;37.314;2022-10-19T11:53:11;98484.19;;;9.50;69.63
44138;BME280;29800;55.942;37.314;2022-10-19T11:56:11;98481.72;;;9.54;69.94
44138;BME280;29800;55.942;37.314;2022-10-19T12:02:01;98484.75;;;9.57;69.39
44138;BME280;29800;55.942;37.314;2022-10-19T12:07:30;98481.72;;;9.54;69.67
44138;BME280;29800;55.942;37.314;2022-10-19T12:13:19;98479.00;;;10.65;71.46
44138;BME280;29800;55.942;37.314;2022-10-19T12:15:52;98480.88;;;10.75;67.66
44138;BME280;29800;55.942;37.314;2022-10-19T12:21:02;98484.88;;;10.38;67.10
44138;BME280;29800;55.942;37.314;2022-10-19T12:23:35;98479.97;;;10.25;67.55
44138;BME280;29800;55.942;37.314;2022-10-19T12:26:09;98480.53;;;10.22;67.52
44138;BME280;29800;55.942;37.314;2022-10-19T12:29:03;98479.47;;;10.07;67.41
44138;BME280;29800;55.942;37.314;2022-10-19T12:31:37;98489.59;;;9.97;67.54
44138;BME280;29800;55.942;37.314;2022-10-19T12:34:30;98492.63;;;9.90;67.38
44138;BME280;29800;55.942;37.314;2022-10-19T12:42:40;98485.81;;;9.77;67.07
44138;BME280;29800;55.942;37.314;2022-10-19T12:48:19;98485.81;;;9.72;67.31
44138;BME280;29800;55.942;37.314;2022-10-19T12:53:31;98491.00;;;9.63;67.95
44138;BME280;29800;55.942;37.314;2022-10-19T12:56:09;98489.91;;;9.59;67.68
44138;BME280;29800;55.942;37.314;2022-10-19T12:58:54;98491.84;;;9.59;67.69
44138;BME280;29800;55.942;37.314;2022-10-19T13:01:26;98493.22;;;9.61;67.23
44138;BME280;29800;55.942;37.314;2022-10-19T13:04:20;98492.13;;;9.72;67.42
44138;BME280;29800;55.942;37.314;2022-10-19T13:09:40;98498.66;;;9.77;66.86
44138;BME280;29800;55.942;37.314;2022-10-19T13:14:59;98501.94;;;9.73;66.06
44138;BME280;29800;55.942;37.314;2022-10-19T13:17:37;98511.78;;;9.80;66.17
44138;BME280;29800;55.942;37.314;2022-10-19T13:25:42;98511.78;;;9.80;66.00
44138;BME280;29800;55.942;37.314;2022-10-19T13:31:00;98519.97;;;9.80;65.94
44138;BME280;29800;55.942;37.314;2022-10-19T13:43:40;98527.63;;;9.72;65.19
44138;BME280;29800;55.942;37.314;2022-10-19T13:49:31;98531.97;;;9.79;65.11
44138;BME280;29800;55.942;37.314;2022-10-19T14:04:35;98535.81;;;9.78;64.86
44138;BME280;29800;55.942;37.314;2022-10-19T14:07:14;98536.91;;;9.71;64.40
44138;BME280;29800;55.942;37.314;2022-10-19T14:12:24;98537.47;;;9.68;64.65
44138;BME280;29800;55.942;37.314;2022-10-19T14:14:55;98537.47;;;9.63;64.43
44138;BME280;29800;55.942;37.314;2022-10-19T14:17:24;98537.47;;;9.63;64.57
44138;BME280;29800;55.942;37.314;2022-10-19T14:19:57;98539.66;;;9.66;64.79
44138;BME280;29800;55.942;37.314;2022-10-19T14:22:33;98544.84;;;9.63;65.06
44138;BME280;29800;55.942;37.314;2022-10-19T14:25:23;98550.03;;;9.85;64.74
44138;BME280;29800;55.942;37.314;2022-10-19T14:28:13;98548.38;;;9.73;64.94
44138;BME280;29800;55.942;37.314;2022-10-19T14:33:24;98554.94;;;9.57;65.43
44138;BME280;29800;55.942;37.314;2022-10-19T14:36:06;98546.75;;;9.57;65.32
44138;BME280;29800;55.942;37.314;2022-10-19T14:38:40;98554.94;;;9.57;65.80
44138;BME280;29800;55.942;37.314;2022-10-19T14:41:30;98554.94;;;9.62;65.93
44138;BME280;29800;55.942;37.314;2022-10-19T14:44:17;98555.75;;;9.52;66.03
44138;BME280;29800;55.942;37.314;2022-10-19T14:46:51;98566.97;;;9.56;66.07
44138;BME280;29800;55.942;37.314;2022-10-19T14:49:23;98565.31;;;9.55;66.43
44138;BME280;29800;55.942;37.314;2022-10-19T14:51:59;98566.41;;;9.59;66.55
44138;BME280;29800;55.942;37.314;2022-10-19T14:54:34;98566.13;;;9.55;66.43
44138;BME280;29800;55.942;37.314;2022-10-19T14:57:15;98568.31;;;9.53;66.73
44138;BME280;29800;55.942;37.314;2022-10-19T15:00:04;98571.59;;;9.55;66.48
44138;BME280;29800;55.942;37.314;2022-10-19T15:02:37;98572.41;;;9.46;66.44
44138;BME280;29800;55.942;37.314;2022-10-19T15:05:19;98577.06;;;9.50;66.61
44138;BME280;29800;55.942;37.314;2022-10-19T15:07:46;98586.06;;;9.41;66.59
44138;BME280;29800;55.942;37.314;2022-10-19T15:10:28;98582.78;;;9.49;66.65
44138;BME280;29800;55.942;37.314;2022-10-19T15:13:21;98578.97;;;9.45;66.09
44138;BME280;29800;55.942;37.314;2022-10-19T15:15:52;98583.88;;;9.43;65.69
44138;BME280;29800;55.942;37.314;2022-10-19T15:18:26;98579.50;;;9.42;65.84
44138;BME280;29800;55.942;37.314;2022-10-19T15:21:13;98582.25;;;9.42;66.61
44138;BME280;29800;55.942;37.314;2022-10-19T15:23:48;98590.72;;;9.40;65.74
44138;BME280;29800;55.942;37.314;2022-10-19T15:29:17;98599.44;;;9.47;66.60
44138;BME280;29800;55.942;37.314;2022-10-19T15:32:22;98597.78;;;9.41;66.09
44138;BME280;29800;55.942;37.314;2022-10-19T15:35:28;98602.44;;;9.46;66.39
44138;BME280;29800;55.942;37.314;2022-10-19T15:38:06;98610.09;;;9.38;66.25
44138;BME280;29800;55.942;37.314;2022-10-19T15:40:38;98606.81;;;9.36;66.28
44138;BME280;29800;55.942;37.314;2022-10-19T15:48:50;98617.75;;;9.36;66.98
44138;BME280;29800;55.942;37.314;2022-10-19T15:53:59;98616.09;;;9.35;66.77
44138;BME280;29800;55.942;37.314;2022-10-19T15:56:37;98617.44;;;9.33;66.73